CheckWX is a tool to help pilots better visualize weather data.  It is not intended as a substitute for an official pre-flight weather briefing.

20:37:03 UTC

KGBD METAR
Great Bend Municipal Airport
Great Bend, Kansas, USA
Current

41 mins ago

KGBD 181956Z AUTO 36010KT 10SM BKN100 M06/M11 A3042 RMK AO2 SNE29 SLP334 P0000 T10561111 FZRANO
Observed
Feb-18 @ 19:56 UTC
Wind
  • 360° at 10 KTS
Visibility
10 SM
Flight Rules
VFR
Cloud Levels
  • Broken at 10,000' AGL
Temperature
-6°C / 21°F
Dewpoint
-11°C / 12°F
Humidity
68%
Altimeter
30.42" Hg
Pressure
1033.4 hPa
Current Rain
0.01"
Previous

1 hour ago

KGBD 181930Z AUTO 36010KT 9SM FEW018 BKN036 M04/M11 A3044 RMK AO2 SNE29 P0000 FZRANO
Observed
Feb-18 @ 19:30 UTC
Wind
  • 360° at 10 KTS
Visibility
9 SM
Flight Rules
VFR
Cloud Levels
  • Few at 1,800' AGL
  • Broken at 3,600' AGL
Temperature
-4°C / 25°F
Dewpoint
-11°C / 12°F
Humidity
59%
Altimeter
30.44" Hg
Pressure
1030.81 hPa
Current Rain
0.01"
Previous

2 hours ago

KGBD 181906Z AUTO 01011KT 8SM -SN SCT020 BKN029 OVC035 M06/M11 A3044 RMK AO2 P0000 FZRANO
Observed
Feb-18 @ 19:06 UTC
Wind
  • 010° at 11 KTS
Visibility
8 SM
Flight Rules
MVFR
Conditions
Light Snow
Cloud Levels
  • Scattered at 2,000' AGL
  • Broken at 2,900' AGL
  • Overcast at 3,500' AGL
Temperature
-6°C / 21°F
Dewpoint
-11°C / 12°F
Humidity
68%
Altimeter
30.44" Hg
Pressure
1030.81 hPa
Current Rain
0.01"